createdAt,value
2019-05-03T00:02:23.941Z,87.76
2019-05-03T00:04:54.869Z,88.34
2019-05-03T00:07:22.445Z,88.45
2019-05-03T00:09:49.802Z,89.81
2019-05-03T00:12:17.206Z,89.80
2019-05-03T00:14:46.530Z,90.21
2019-05-03T00:17:13.842Z,90.27
2019-05-03T00:19:42.239Z,89.67
2019-05-03T00:22:09.931Z,89.47
2019-05-03T00:24:37.267Z,88.69
2019-05-03T00:27:04.542Z,90.62
2019-05-03T00:29:32.506Z,89.46
2019-05-03T00:32:01.774Z,89.60
2019-05-03T00:34:34.705Z,89.00
2019-05-03T00:37:04.249Z,89.61
2019-05-03T00:39:36.623Z,91.31
2019-05-03T00:42:04.010Z,91.38
2019-05-03T00:44:31.753Z,90.23
2019-05-03T00:46:59.443Z,89.78
2019-05-03T00:49:26.799Z,89.92
2019-05-03T00:51:54.144Z,90.24
2019-05-03T00:54:22.302Z,89.78
2019-05-03T00:56:49.861Z,90.13
2019-05-03T00:59:17.202Z,89.30
2019-05-03T01:01:44.504Z,89.11
2019-05-03T01:04:11.966Z,88.71
2019-05-03T01:06:39.322Z,89.23
2019-05-03T01:09:13.008Z,89.86
2019-05-03T01:11:41.834Z,90.32
2019-05-03T01:14:11.908Z,90.73
2019-05-03T01:16:39.317Z,91.55
2019-05-03T01:19:06.617Z,91.72
2019-05-03T01:21:33.978Z,89.79
2019-05-03T01:24:01.695Z,88.13
2019-05-03T01:26:29.176Z,89.19
2019-05-03T01:28:56.503Z,92.29
2019-05-03T01:31:23.862Z,92.56
2019-05-03T01:33:51.763Z,91.82
2019-05-03T01:36:19.503Z,91.72
2019-05-03T01:38:46.863Z,92.32
2019-05-03T01:41:14.165Z,91.66
2019-05-03T01:43:41.902Z,90.79
2019-05-03T01:46:09.523Z,92.10
2019-05-03T01:49:12.290Z,92.32
2019-05-03T01:52:05.363Z,92.28
2019-05-03T01:54:32.722Z,92.10
2019-05-03T01:57:02.250Z,89.52
2019-05-03T01:59:29.242Z,88.10
2019-05-03T02:02:14.604Z,87.76
2019-05-03T02:04:46.078Z,88.26
2019-05-03T02:07:13.446Z,88.00
2019-05-03T02:09:41.685Z,88.51
2019-05-03T02:12:09.138Z,90.88
2019-05-03T02:14:36.456Z,90.37
2019-05-03T02:17:03.737Z,90.36
2019-05-03T02:19:32.688Z,89.87
2019-05-03T02:22:00.247Z,89.33
2019-05-03T02:24:27.527Z,89.89
2019-05-03T02:26:54.878Z,89.40
2019-05-03T02:29:22.183Z,89.32
2019-05-03T02:31:49.465Z,88.41
2019-05-03T02:34:16.796Z,88.04
2019-05-03T02:36:44.144Z,87.58
2019-05-03T02:39:14.231Z,87.44
2019-05-03T02:41:41.525Z,87.15
2019-05-03T02:44:09.046Z,86.94
2019-05-03T02:46:48.396Z,88.09
2019-05-03T02:49:26.052Z,90.38
2019-05-03T02:51:55.499Z,92.01
2019-05-03T02:54:22.730Z,91.43
2019-05-03T02:56:50.050Z,88.48
2019-05-03T02:59:17.307Z,88.96
2019-05-03T03:01:46.488Z,89.20
2019-05-03T03:04:15.832Z,89.46
2019-05-03T03:06:45.482Z,90.74
2019-05-03T03:09:16.477Z,92.36
2019-05-03T03:11:45.753Z,91.51
2019-05-03T03:14:16.741Z,90.54
2019-05-03T03:16:47.551Z,91.96
2019-05-03T03:19:16.104Z,92.33
2019-05-03T03:21:46.614Z,91.85
2019-05-03T03:24:17.924Z,90.13
2019-05-03T03:26:47.524Z,89.11
2019-05-03T03:29:16.854Z,91.05
2019-05-03T03:32:21.685Z,91.09
2019-05-03T03:35:02.944Z,91.83
2019-05-03T03:37:28.529Z,91.59
2019-05-03T03:39:58.693Z,91.35
2019-05-03T03:42:27.804Z,91.58
2019-05-03T03:44:56.585Z,91.05
2019-05-03T03:47:27.340Z,91.13
2019-05-03T03:49:55.305Z,91.80
2019-05-03T03:52:25.309Z,90.28
2019-05-03T03:54:55.414Z,90.11
2019-05-03T03:57:25.285Z,91.61
2019-05-03T03:59:52.785Z,91.44
2019-05-03T04:02:20.209Z,92.29
2019-05-03T04:04:47.589Z,92.94
2019-05-03T04:07:16.003Z,92.91
2019-05-03T04:09:45.734Z,93.15
2019-05-03T04:12:13.121Z,92.87
2019-05-03T04:14:47.676Z,91.59
2019-05-03T04:17:26.640Z,90.77
2019-05-03T04:19:55.922Z,90.67
2019-05-03T04:22:25.745Z,91.06
2019-05-03T04:24:55.299Z,91.68
2019-05-03T04:27:26.438Z,90.95
2019-05-03T04:29:51.802Z,91.92
2019-05-03T04:32:19.083Z,91.53
2019-05-03T04:34:46.443Z,91.59
2019-05-03T04:37:16.151Z,91.06
2019-05-03T04:39:45.349Z,90.35
2019-05-03T04:42:12.245Z,92.41
2019-05-03T04:44:39.552Z,92.12
2019-05-03T04:47:07.312Z,90.59
2019-05-03T04:49:36.245Z,90.10
2019-05-03T04:52:05.814Z,89.97
2019-05-03T04:54:51.967Z,89.57
2019-05-03T04:57:34.901Z,88.82
2019-05-03T04:59:48.811Z,88.17
2019-05-03T05:02:16.191Z,90.00
2019-05-03T05:04:46.062Z,92.07
2019-05-03T05:07:15.257Z,92.16
2019-05-03T05:09:41.894Z,90.96
2019-05-03T05:12:09.219Z,91.62
2019-05-03T05:14:36.586Z,90.93
2019-05-03T05:17:06.128Z,88.58
2019-05-03T05:19:51.582Z,88.73
2019-05-03T05:22:24.311Z,89.02
2019-05-03T05:24:51.908Z,89.93
2019-05-03T05:27:25.736Z,88.75
2019-05-03T05:29:55.285Z,87.18
2019-05-03T05:32:22.456Z,87.25
2019-05-03T05:34:49.863Z,89.08
2019-05-03T05:37:17.166Z,91.41
2019-05-03T05:39:44.797Z,91.16
2019-05-03T05:42:12.404Z,90.57
2019-05-03T05:44:39.753Z,90.00
2019-05-03T05:47:15.008Z,90.99
2019-05-03T05:49:54.895Z,88.99
2019-05-03T05:52:24.405Z,88.54
2019-05-03T05:55:00.801Z,89.40
2019-05-03T05:58:08.136Z,90.45
2019-05-03T06:00:44.794Z,89.86
2019-05-03T06:03:12.170Z,90.10
2019-05-03T06:05:39.705Z,88.85
2019-05-03T06:08:26.575Z,86.84
2019-05-03T06:11:16.332Z,86.38
2019-05-03T06:13:56.800Z,85.98
2019-05-03T06:16:34.895Z,87.14
2019-05-03T06:19:30.718Z,85.68
2019-05-03T06:22:08.072Z,86.19
2019-05-03T06:24:40.382Z,88.35
2019-05-03T06:27:16.612Z,88.62
2019-05-03T06:29:45.483Z,87.90
2019-05-03T06:32:22.990Z,87.86
2019-05-03T06:34:50.307Z,87.56
2019-05-03T06:37:19.562Z,85.43
2019-05-03T06:39:46.908Z,84.10
2019-05-03T06:42:17.412Z,84.11
2019-05-03T06:44:46.015Z,85.06
2019-05-03T06:47:14.827Z,85.55
2019-05-03T06:49:44.901Z,87.33
2019-05-03T06:52:11.587Z,86.17
2019-05-03T06:54:41.754Z,85.75
2019-05-03T06:57:10.993Z,85.32
2019-05-03T06:59:57.853Z,83.88
2019-05-03T07:02:46.533Z,83.98
2019-05-03T07:05:40.367Z,84.02
2019-05-03T07:08:28.102Z,81.93
2019-05-03T07:10:57.767Z,80.29
2019-05-03T07:13:25.519Z,80.92
2019-05-03T07:15:52.906Z,78.88
2019-05-03T07:18:20.257Z,77.66
2019-05-03T07:20:56.518Z,78.60
2019-05-03T07:23:24.112Z,79.36
2019-05-03T07:25:51.436Z,82.00
2019-05-03T07:28:18.773Z,81.55
2019-05-03T07:30:46.089Z,82.24
2019-05-03T07:33:20.536Z,82.34
2019-05-03T07:35:47.826Z,82.27
2019-05-03T07:38:15.575Z,82.93
2019-05-03T07:40:44.586Z,84.19
2019-05-03T07:43:12.211Z,83.99
2019-05-03T07:45:39.509Z,82.33
2019-05-03T07:48:08.650Z,80.83
2019-05-03T07:50:36.023Z,80.58
2019-05-03T07:53:04.638Z,80.37
2019-05-03T07:55:51.897Z,78.81
2019-05-03T07:58:21.121Z,78.36
2019-05-03T08:01:02.550Z,79.14
2019-05-03T08:03:18.650Z,79.34
2019-05-03T08:05:45.949Z,79.17
2019-05-03T08:08:14.944Z,78.79
2019-05-03T08:10:44.864Z,79.76
2019-05-03T08:13:11.763Z,79.09
2019-05-03T08:15:39.161Z,79.22
2019-05-03T08:18:09.121Z,79.38
2019-05-03T08:20:36.628Z,77.04
2019-05-03T08:23:05.312Z,75.80
2019-05-03T08:25:33.004Z,76.23
2019-05-03T08:28:00.350Z,73.29
2019-05-03T08:30:36.590Z,71.77
2019-05-03T08:33:11.269Z,74.20
2019-05-03T08:35:41.034Z,75.92
2019-05-03T08:38:08.347Z,73.82
2019-05-03T08:40:41.682Z,74.35
2019-05-03T08:43:09.007Z,77.53
2019-05-03T08:45:36.404Z,75.07
2019-05-03T08:48:05.550Z,76.40
2019-05-03T08:50:34.742Z,77.93
2019-05-03T08:53:04.891Z,76.79
2019-05-03T08:55:31.552Z,75.47
2019-05-03T08:57:58.887Z,76.43
2019-05-03T09:00:28.176Z,76.23
2019-05-03T09:02:55.552Z,76.36
2019-05-03T09:05:25.070Z,78.57
2019-05-03T09:07:52.363Z,79.95
2019-05-03T09:10:27.926Z,81.57
2019-05-03T09:13:06.562Z,78.32
2019-05-03T09:15:35.106Z,79.14
2019-05-03T09:18:04.625Z,82.01
2019-05-03T09:20:32.405Z,79.48
2019-05-03T09:23:00.068Z,79.73
2019-05-03T09:25:27.422Z,79.17
2019-05-03T09:27:55.225Z,78.36
2019-05-03T09:30:24.985Z,80.67
2019-05-03T09:32:52.067Z,81.29
2019-05-03T09:35:29.628Z,80.49
2019-05-03T09:37:48.543Z,80.67
2019-05-03T09:40:15.957Z,80.16
2019-05-03T09:42:44.520Z,78.95
2019-05-03T09:45:12.429Z,77.94
2019-05-03T09:47:39.725Z,80.43
2019-05-03T09:50:07.528Z,79.87
2019-05-03T09:52:35.593Z,79.09
2019-05-03T09:55:05.674Z,75.67
2019-05-03T09:57:34.717Z,76.69
2019-05-03T10:00:04.755Z,76.97
2019-05-03T10:02:31.752Z,77.97
2019-05-03T10:04:59.156Z,78.78
2019-05-03T10:07:27.512Z,75.32
2019-05-03T10:09:55.376Z,74.72
2019-05-03T10:12:25.473Z,75.82
2019-05-03T10:14:54.840Z,76.51
2019-05-03T10:17:51.014Z,77.98
2019-05-03T10:20:19.857Z,81.15
2019-05-03T10:22:47.151Z,83.94
2019-05-03T10:25:14.464Z,82.37
2019-05-03T10:27:47.306Z,83.17
2019-05-03T10:30:19.578Z,83.49
2019-05-03T10:32:51.184Z,80.20
2019-05-03T10:35:19.172Z,80.66
2019-05-03T10:37:46.604Z,76.96
2019-05-03T10:40:18.529Z,78.62
2019-05-03T10:42:45.947Z,73.07
2019-05-03T10:45:15.249Z,74.41
2019-05-03T10:47:42.687Z,72.24
2019-05-03T10:50:10.284Z,69.67
2019-05-03T10:52:44.670Z,73.18
2019-05-03T10:55:12.273Z,72.52
2019-05-03T10:57:44.963Z,72.16
2019-05-03T11:00:41.739Z,67.68
2019-05-03T11:02:54.985Z,71.15
2019-05-03T11:05:22.428Z,68.15
2019-05-03T11:07:49.781Z,67.98
2019-05-03T11:10:17.278Z,65.37
2019-05-03T11:12:44.635Z,65.39
2019-05-03T11:15:12.138Z,69.77
2019-05-03T11:17:39.516Z,69.57
2019-05-03T11:20:06.949Z,68.89
2019-05-03T11:22:34.951Z,69.38
2019-05-03T11:25:02.540Z,70.34
2019-05-03T11:27:49.434Z,71.91
2019-05-03T11:30:17.611Z,71.70
2019-05-03T11:33:15.155Z,71.38
2019-05-03T11:35:50.262Z,70.50
2019-05-03T11:38:20.419Z,73.65
2019-05-03T11:40:47.828Z,71.32
2019-05-03T11:43:16.862Z,72.18
2019-05-03T11:45:44.876Z,70.34
2019-05-03T11:48:14.666Z,67.88
2019-05-03T11:50:42.494Z,69.68
2019-05-03T11:53:09.911Z,69.97
2019-05-03T11:55:37.276Z,69.89
2019-05-03T11:58:17.724Z,68.75
2019-05-03T12:00:45.289Z,68.87
2019-05-03T12:03:18.137Z,73.44
2019-05-03T12:05:48.603Z,74.99
2019-05-03T12:08:16.069Z,72.46
2019-05-03T12:10:55.162Z,77.72
2019-05-03T12:13:19.197Z,73.56
2019-05-03T12:15:46.633Z,74.82
2019-05-03T12:18:16.335Z,74.97
2019-05-03T12:20:46.532Z,73.33
2019-05-03T12:23:15.643Z,70.68
2019-05-03T12:25:45.351Z,74.53
2019-05-03T12:28:11.662Z,73.29
2019-05-03T12:30:39.072Z,73.13
2019-05-03T12:33:06.554Z,73.43
2019-05-03T12:35:35.764Z,68.33
2019-05-03T12:38:05.430Z,67.86
2019-05-03T12:40:32.540Z,70.69
2019-05-03T12:43:00.063Z,69.39
2019-05-03T12:45:27.428Z,68.89
2019-05-03T12:47:55.944Z,67.40
2019-05-03T12:50:25.168Z,67.82
2019-05-03T12:52:55.229Z,68.07
2019-05-03T12:55:22.064Z,66.86
2019-05-03T12:57:49.485Z,66.40
2019-05-03T13:00:35.642Z,65.66
2019-05-03T13:03:09.211Z,66.12
2019-05-03T13:05:36.596Z,66.72
2019-05-03T13:08:48.731Z,67.62
2019-05-03T13:11:16.229Z,65.34
2019-05-03T13:13:45.177Z,68.28
2019-05-03T13:16:16.868Z,67.81
2019-05-03T13:18:45.796Z,68.89
2019-05-03T13:21:13.383Z,69.12
2019-05-03T13:23:40.714Z,65.90
2019-05-03T13:26:09.107Z,68.74
2019-05-03T13:28:36.471Z,68.77
2019-05-03T13:31:05.830Z,69.74
2019-05-03T13:33:34.788Z,68.80
2019-05-03T13:36:02.511Z,67.77
2019-05-03T13:38:29.865Z,68.12
2019-05-03T13:40:57.514Z,69.12
2019-05-03T13:43:24.844Z,68.75
2019-05-03T13:45:52.251Z,72.26
2019-05-03T13:48:21.026Z,72.98
2019-05-03T13:50:48.810Z,74.06
2019-05-03T13:53:16.267Z,72.84
2019-05-03T13:55:44.556Z,73.48
2019-05-03T13:58:12.187Z,71.45
2019-05-03T14:00:39.572Z,75.30
2019-05-03T14:03:06.956Z,74.96
2019-05-03T14:05:35.198Z,73.60
2019-05-03T14:08:05.094Z,75.23
2019-05-03T14:10:32.278Z,74.82
2019-05-03T14:12:59.697Z,75.76
2019-05-03T14:15:27.150Z,77.54
2019-05-03T14:17:54.792Z,73.84
2019-05-03T14:20:42.827Z,72.01
2019-05-03T14:23:10.336Z,74.33
2019-05-03T14:25:37.671Z,72.79
2019-05-03T14:28:05.477Z,72.49
2019-05-03T14:30:34.625Z,71.25
2019-05-03T14:33:02.309Z,71.76
2019-05-03T14:35:29.657Z,71.69
2019-05-03T14:37:57.037Z,73.23
2019-05-03T14:40:25.124Z,72.75
2019-05-03T14:42:55.476Z,71.78
2019-05-03T14:45:22.982Z,68.03
2019-05-03T14:47:50.374Z,67.90
2019-05-03T14:50:17.800Z,68.45
2019-05-03T14:52:45.566Z,71.09
2019-05-03T14:55:22.714Z,72.08
2019-05-03T14:58:05.190Z,69.84
2019-05-03T15:00:52.102Z,70.03
2019-05-03T15:03:24.206Z,71.37
2019-05-03T15:05:51.798Z,72.27
2019-05-03T15:08:19.254Z,71.17
2019-05-03T15:10:46.730Z,70.15
2019-05-03T15:13:15.913Z,70.40
2019-05-03T15:15:45.131Z,71.14
2019-05-03T15:18:14.752Z,71.00
2019-05-03T15:20:42.044Z,71.57
2019-05-03T15:23:09.383Z,70.27
2019-05-03T15:25:36.801Z,69.10
2019-05-03T15:28:05.007Z,71.00
2019-05-03T15:30:32.700Z,68.94
2019-05-03T15:33:01.005Z,68.71
2019-05-03T15:35:28.520Z,70.22
2019-05-03T15:37:55.956Z,69.22
2019-05-03T15:40:25.097Z,68.26
2019-05-03T15:42:59.118Z,70.29
2019-05-03T15:46:01.247Z,67.16
2019-05-03T15:48:30.974Z,61.86
2019-05-03T15:50:58.397Z,64.03
2019-05-03T15:53:25.759Z,62.87
2019-05-03T15:55:55.019Z,65.66
2019-05-03T15:58:22.464Z,68.10
2019-05-03T16:00:49.954Z,65.36
2019-05-03T16:03:17.750Z,65.72
2019-05-03T16:05:45.125Z,67.54
2019-05-03T16:08:12.484Z,65.86
2019-05-03T16:10:39.925Z,65.32
2019-05-03T16:13:07.258Z,64.91
2019-05-03T16:15:35.160Z,63.46
2019-05-03T16:18:05.030Z,64.73
2019-05-03T16:20:34.510Z,64.69
2019-05-03T16:23:01.497Z,66.97
2019-05-03T16:25:28.925Z,68.15
2019-05-03T16:28:20.498Z,70.77
2019-05-03T16:30:50.745Z,68.96
2019-05-03T16:33:27.063Z,70.51
2019-05-03T16:35:47.528Z,68.88
2019-05-03T16:38:15.684Z,70.03
2019-05-03T16:40:45.000Z,71.59
2019-05-03T16:43:12.496Z,71.16
2019-05-03T16:45:39.879Z,72.74
2019-05-03T16:48:08.411Z,73.05
2019-05-03T16:50:35.807Z,73.14
2019-05-03T16:53:03.288Z,74.49
2019-05-03T16:55:30.842Z,74.95
2019-05-03T16:57:58.258Z,73.51
2019-05-03T17:00:25.709Z,75.76
2019-05-03T17:02:54.965Z,77.82
2019-05-03T17:05:57.262Z,78.51
2019-05-03T17:08:31.326Z,77.08
2019-05-03T17:11:00.577Z,78.00
2019-05-03T17:13:27.964Z,79.26
2019-05-03T17:15:55.384Z,80.51
2019-05-03T17:18:24.630Z,79.71
2019-05-03T17:20:52.166Z,80.25
2019-05-03T17:23:20.579Z,79.25
2019-05-03T17:25:47.988Z,79.61
2019-05-03T17:28:15.761Z,80.84
2019-05-03T17:30:44.576Z,79.59
2019-05-03T17:33:12.046Z,80.51
2019-05-03T17:35:39.410Z,81.54
2019-05-03T17:38:06.804Z,82.06
2019-05-03T17:40:58.269Z,81.49
2019-05-03T17:43:51.394Z,81.84
2019-05-03T17:46:18.903Z,82.78
2019-05-03T17:48:46.287Z,81.24
2019-05-03T17:51:35.138Z,82.19
2019-05-03T17:54:11.778Z,82.26
2019-05-03T17:56:57.992Z,82.32
2019-05-03T17:59:30.355Z,83.12
2019-05-03T18:02:16.030Z,82.96
2019-05-03T18:05:14.991Z,83.89
2019-05-03T18:08:04.740Z,82.94
2019-05-03T18:10:33.386Z,83.53
2019-05-03T18:13:00.779Z,83.44
2019-05-03T18:15:28.229Z,83.21
2019-05-03T18:17:55.685Z,83.19
2019-05-03T18:20:23.115Z,83.00
2019-05-03T18:22:50.468Z,82.16
2019-05-03T18:25:20.585Z,81.76
2019-05-03T18:27:47.984Z,82.50
2019-05-03T18:30:15.407Z,81.92
2019-05-03T18:32:42.855Z,82.26
2019-05-03T18:35:10.473Z,83.51
2019-05-03T18:37:37.931Z,84.36
2019-05-03T18:40:05.803Z,84.56
2019-05-03T18:42:39.952Z,84.43
2019-05-03T18:45:15.128Z,82.56
2019-05-03T18:47:44.923Z,83.38
2019-05-03T18:50:12.499Z,82.68
2019-05-03T18:52:40.009Z,82.41
2019-05-03T18:55:07.559Z,82.12
2019-05-03T18:57:36.360Z,80.13
2019-05-03T19:00:07.967Z,81.03
2019-05-03T19:02:33.863Z,79.82
2019-05-03T19:05:01.716Z,80.63
2019-05-03T19:07:47.521Z,80.39
2019-05-03T19:10:40.332Z,80.67
2019-05-03T19:13:15.388Z,80.12
2019-05-03T19:15:43.172Z,80.40
2019-05-03T19:18:35.253Z,80.82
2019-05-03T19:21:04.611Z,80.14
2019-05-03T19:23:32.658Z,80.27
2019-05-03T19:26:00.125Z,81.13
2019-05-03T19:28:27.595Z,81.59
2019-05-03T19:30:55.334Z,81.00
2019-05-03T19:33:24.485Z,80.30
2019-05-03T19:35:52.588Z,80.97
2019-05-03T19:38:21.188Z,80.10
2019-05-03T19:40:49.707Z,80.56
2019-05-03T19:43:18.273Z,80.87
2019-05-03T19:45:46.841Z,81.37
2019-05-03T19:48:16.878Z,81.94
2019-05-03T19:50:46.258Z,82.10
2019-05-03T19:53:19.899Z,83.02
2019-05-03T19:55:50.541Z,81.29
2019-05-03T19:58:19.225Z,81.01
2019-05-03T20:01:09.250Z,81.84
2019-05-03T20:03:45.515Z,81.98
2019-05-03T20:06:25.211Z,81.78
2019-05-03T20:08:58.364Z,82.35
2019-05-03T20:11:26.351Z,82.25
2019-05-03T20:13:55.180Z,81.94
2019-05-03T20:16:22.913Z,83.48
2019-05-03T20:18:50.359Z,83.22
2019-05-03T20:21:17.775Z,83.05
2019-05-03T20:23:47.132Z,82.46
2019-05-03T20:26:15.169Z,81.93
2019-05-03T20:28:44.802Z,83.33
2019-05-03T20:31:12.477Z,82.60
2019-05-03T20:33:39.882Z,83.22
2019-05-03T20:36:07.254Z,83.71
2019-05-03T20:38:34.709Z,82.96
2019-05-03T20:41:02.136Z,83.16
2019-05-03T20:43:36.716Z,83.30
2019-05-03T20:46:15.154Z,83.04
2019-05-03T20:48:44.911Z,82.96
2019-05-03T20:51:12.322Z,82.87
2019-05-03T20:53:39.667Z,83.76
2019-05-03T20:56:07.255Z,84.88
2019-05-03T20:58:35.816Z,85.77
2019-05-03T21:01:05.002Z,85.92
2019-05-03T21:03:32.735Z,85.76
2019-05-03T21:06:02.392Z,86.04
2019-05-03T21:08:30.698Z,85.84
2019-05-03T21:10:58.121Z,86.40
2019-05-03T21:13:38.646Z,86.51
2019-05-03T21:16:14.804Z,87.36
2019-05-03T21:18:57.959Z,86.33
2019-05-03T21:21:35.204Z,84.76
2019-05-03T21:24:11.652Z,84.19
2019-05-03T21:26:39.586Z,83.66
2019-05-03T21:29:07.163Z,84.79
2019-05-03T21:31:35.199Z,85.18
2019-05-03T21:34:05.623Z,85.30
2019-05-03T21:36:34.901Z,86.07
2019-05-03T21:39:02.891Z,85.50
2019-05-03T21:41:30.251Z,86.31
2019-05-03T21:43:57.693Z,86.08
2019-05-03T21:46:40.116Z,85.36
2019-05-03T21:49:15.852Z,85.30
2019-05-03T21:51:44.967Z,84.56
2019-05-03T21:54:12.480Z,83.22
2019-05-03T21:56:39.987Z,83.32
2019-05-03T21:59:07.490Z,83.25
2019-05-03T22:01:37.644Z,82.91
2019-05-03T22:04:05.052Z,83.24
2019-05-03T22:06:32.460Z,83.15
2019-05-03T22:08:59.823Z,83.33
2019-05-03T22:11:27.177Z,82.87
2019-05-03T22:13:57.144Z,83.06
2019-05-03T22:16:46.832Z,82.82
2019-05-03T22:19:16.280Z,82.45
2019-05-03T22:22:02.997Z,82.84
2019-05-03T22:24:37.666Z,83.52
2019-05-03T22:27:15.395Z,84.31
2019-05-03T22:29:44.656Z,84.74
2019-05-03T22:32:12.243Z,84.57
2019-05-03T22:34:39.612Z,84.53
2019-05-03T22:37:06.967Z,85.99
2019-05-03T22:39:34.326Z,85.69
2019-05-03T22:42:01.665Z,85.28
2019-05-03T22:44:29.066Z,85.37
2019-05-03T22:46:56.431Z,85.37
2019-05-03T22:49:25.724Z,87.72
2019-05-03T22:51:54.350Z,87.68
2019-05-03T22:54:22.004Z,87.19
2019-05-03T22:56:49.367Z,86.96
2019-05-03T22:59:16.737Z,86.51
2019-05-03T23:01:45.784Z,87.25
2019-05-03T23:04:14.704Z,87.40
2019-05-03T23:06:46.716Z,86.74
2019-05-03T23:09:11.616Z,86.97
2019-05-03T23:11:38.963Z,87.33
2019-05-03T23:14:06.323Z,87.29
2019-05-03T23:16:35.628Z,87.59
2019-05-03T23:19:05.325Z,88.61
2019-05-03T23:21:54.479Z,88.56
2019-05-03T23:24:22.026Z,88.18
2019-05-03T23:26:49.363Z,88.07
2019-05-03T23:29:16.749Z,88.14
2019-05-03T23:31:44.833Z,88.07
2019-05-03T23:34:12.443Z,87.80
2019-05-03T23:36:39.795Z,87.77
2019-05-03T23:39:08.609Z,87.53
2019-05-03T23:41:36.026Z,87.42
2019-05-03T23:44:04.793Z,87.77
2019-05-03T23:46:56.627Z,87.64
2019-05-03T23:49:25.003Z,87.17
2019-05-03T23:51:55.521Z,87.01
2019-05-03T23:54:24.744Z,88.13
2019-05-03T23:56:55.022Z,87.80
2019-05-03T23:59:22.345Z,87.65
